Time;durP1;ratioP1;P1;durP2;ratioP2;P2;SDS_P1;SDS_P2;PMS_P1;PMS_P2;Temp;Humidity;BMP_temperature;BMP_pressure;BME280_temperature;BME280_humidity;BME280_pressure;Samples;Min_cycle;Max_cycle;Signal;HPM_P1;HPM_P2
2023/11/06 00:00:27;;;;;;;7.90;1.60;;;;;;;6.26;100.00;98139.00;5065979;28;20090;-42
2023/11/06 00:03:06;;;;;;;5.72;1.83;;;;;;;6.25;100.00;98137.44;5066863;28;20045;-42
2023/11/06 00:05:36;;;;;;;9.52;1.77;;;;;;;6.25;100.00;98132.69;5070335;28;20457;-43
2023/11/06 00:08:05;;;;;;;6.63;1.50;;;;;;;6.25;100.00;98132.69;5069897;28;20122;-46
2023/11/06 00:10:31;;;;;;;11.32;2.15;;;;;;;6.26;100.00;98145.28;5070063;28;20044;-42
2023/11/06 00:12:59;;;;;;;6.43;2.38;;;;;;;6.25;100.00;98157.44;5069755;28;21435;-43
2023/11/06 00:15:26;;;;;;;7.35;1.60;;;;;;;6.26;100.00;98148.03;5069145;28;20490;-46
2023/11/06 00:17:55;;;;;;;7.20;1.88;;;;;;;6.26;100.00;98147.22;5069746;28;20094;-44
2023/11/06 00:20:22;;;;;;;6.90;2.67;;;;;;;6.26;100.00;98142.53;5069097;28;20098;-45
2023/11/06 00:22:50;;;;;;;11.85;2.33;;;;;;;6.27;100.00;98146.88;5067569;28;20607;-44
2023/11/06 00:25:16;;;;;;;13.02;2.63;;;;;;;6.27;100.00;98162.56;5070343;28;20032;-45
2023/11/06 00:27:43;;;;;;;6.10;1.80;;;;;;;6.27;100.00;98168.84;5069572;28;20040;-50
2023/11/06 00:30:11;;;;;;;7.65;1.65;;;;;;;6.26;100.00;98153.53;5059940;28;20068;-41
2023/11/06 00:32:37;;;;;;;14.13;3.53;;;;;;;6.27;100.00;98160.59;5068288;28;20040;-42
2023/11/06 00:35:05;;;;;;;8.27;2.17;;;;;;;6.27;100.00;98168.06;5065013;28;20037;-43
2023/11/06 00:37:31;;;;;;;6.95;3.05;;;;;;;6.26;100.00;98164.50;5056371;28;20037;-44
2023/11/06 00:39:58;;;;;;;9.23;1.55;;;;;;;6.26;100.00;98175.50;5069164;28;20397;-43
2023/11/06 00:42:25;;;;;;;9.57;2.00;;;;;;;6.27;100.00;98168.84;5069401;28;20074;-44
2023/11/06 00:44:53;;;;;;;12.18;2.95;;;;;;;6.26;100.00;98171.97;5069612;28;20037;-45
2023/11/06 00:47:19;;;;;;;10.00;2.20;;;;;;;6.27;100.00;98173.53;5068731;28;20437;-46
2023/11/06 00:49:46;;;;;;;9.77;2.22;;;;;;;6.26;100.00;98178.25;5069258;28;20406;-42
2023/11/06 00:52:13;;;;;;;14.38;2.20;;;;;;;6.26;100.00;98178.25;5069341;28;20055;-44
2023/11/06 00:54:40;;;;;;;15.05;3.35;;;;;;;6.26;100.00;98167.25;5067752;28;20290;-42
2023/11/06 00:57:07;;;;;;;21.27;2.58;;;;;;;6.25;100.00;98165.66;5059715;28;20043;-48
2023/11/06 00:59:34;;;;;;;9.68;1.63;;;;;;;6.26;100.00;98171.97;5067366;28;20806;-45
2023/11/06 01:02:00;;;;;;;11.60;2.22;;;;;;;6.27;100.00;98174.34;5068350;28;20592;-45
2023/11/06 01:04:27;;;;;;;11.57;2.53;;;;;;;6.26;100.00;98178.25;5068989;28;21239;-46
2023/11/06 01:06:54;;;;;;;12.57;3.10;;;;;;;6.26;100.00;98172.75;5068160;28;20120;-47
2023/11/06 01:09:21;;;;;;;8.35;1.85;;;;;;;6.26;100.00;98180.19;5063306;28;20072;-46
2023/11/06 01:11:48;;;;;;;12.80;2.65;;;;;;;6.25;100.00;98187.66;5067316;28;20746;-44
2023/11/06 01:14:17;;;;;;;9.40;1.88;;;;;;;6.25;100.00;98184.91;5068244;28;20040;-48
2023/11/06 01:16:44;;;;;;;9.75;1.55;;;;;;;6.23;100.00;98190.00;5068333;28;20052;-44
2023/11/06 01:19:12;;;;;;;9.98;2.25;;;;;;;6.23;100.00;98200.97;5067789;28;20098;-44
2023/11/06 01:21:39;;;;;;;16.48;2.47;;;;;;;6.22;100.00;98188.44;5056618;28;20041;-43
2023/11/06 01:24:07;;;;;;;6.93;2.10;;;;;;;6.21;100.00;98183.28;5068621;28;20062;-43
2023/11/06 01:26:33;;;;;;;10.48;1.75;;;;;;;6.22;100.00;98196.66;5069938;28;20039;-43
2023/11/06 01:29:00;;;;;;;12.05;1.80;;;;;;;6.21;100.00;98192.34;5069655;28;20050;-44
2023/11/06 01:31:28;;;;;;;11.70;3.40;;;;;;;6.21;100.00;98205.28;5061256;28;20482;-44
2023/11/06 01:33:55;;;;;;;5.43;1.58;;;;;;;6.20;100.00;98209.97;5065127;28;20076;-46
2023/11/06 01:36:22;;;;;;;3.47;2.22;;;;;;;6.19;100.00;98205.66;5069665;28;20461;-43
2023/11/06 01:38:49;;;;;;;11.63;1.92;;;;;;;6.19;100.00;98211.16;5069272;28;20064;-46
2023/11/06 01:41:16;;;;;;;14.13;2.10;;;;;;;6.18;100.00;98217.81;5069531;28;20075;-43
2023/11/06 01:43:42;;;;;;;14.40;1.73;;;;;;;6.17;100.00;98213.47;5055911;28;20124;-43
2023/11/06 01:46:11;;;;;;;8.50;1.58;;;;;;;6.15;100.00;98210.31;5069061;28;20413;-42
2023/11/06 01:48:38;;;;;;;8.25;2.22;;;;;;;6.15;100.00;98221.31;5066784;28;20052;-42
2023/11/06 01:51:05;;;;;;;14.02;1.42;;;;;;;6.14;100.00;98219.75;5069587;28;20505;-43
2023/11/06 01:53:32;;;;;;;12.88;1.45;;;;;;;6.13;100.00;98226.38;5069428;28;20047;-42
2023/11/06 01:56:00;;;;;;;9.75;2.72;;;;;;;6.14;100.00;98236.22;5068341;28;20044;-44
2023/11/06 01:58:28;;;;;;;8.98;2.28;;;;;;;6.11;100.00;98239.72;5068691;28;20033;-42
2023/11/06 02:00:55;;;;;;;9.45;1.50;;;;;;;6.12;100.00;98230.28;5069082;28;20483;-42
2023/11/06 02:03:22;;;;;;;9.07;2.22;;;;;;;6.14;100.00;98247.22;5069059;28;20090;-42
2023/11/06 02:05:50;;;;;;;9.45;2.38;;;;;;;6.14;100.00;98236.22;5069164;28;20067;-42
2023/11/06 02:08:17;;;;;;;9.27;2.63;;;;;;;6.15;100.00;98243.28;5068838;28;20036;-43
2023/11/06 02:10:45;;;;;;;10.07;1.63;;;;;;;6.16;100.00;98246.81;5066952;28;20033;-48
2023/11/06 02:13:12;;;;;;;8.82;1.10;;;;;;;6.17;100.00;98251.16;5067489;28;20033;-41
2023/11/06 02:15:40;;;;;;;8.18;1.08;;;;;;;6.16;100.00;98250.38;5068422;28;20047;-46
2023/11/06 02:18:08;;;;;;;11.63;2.38;;;;;;;6.17;100.00;98251.94;5057180;28;20036;-45
2023/11/06 02:20:38;;;;;;;8.90;1.45;;;;;;;6.18;100.00;98255.47;5060715;28;20037;-42
2023/11/06 02:23:07;;;;;;;9.18;1.38;;;;;;;6.17;100.00;98254.69;5068054;28;20449;-43
2023/11/06 02:25:34;;;;;;;15.27;2.63;;;;;;;6.18;100.00;98259.00;5067677;28;20044;-45
2023/11/06 02:28:03;;;;;;;11.23;1.20;;;;;;;6.18;100.00;98277.44;5054011;28;20461;-45
2023/11/06 02:30:30;;;;;;;18.00;1.70;;;;;;;6.17;100.00;98262.91;5062825;28;20059;-43
2023/11/06 02:32:56;;;;;;;9.75;2.45;;;;;;;6.16;100.00;98266.84;5068285;28;20123;-43
2023/11/06 02:35:24;;;;;;;8.27;1.33;;;;;;;6.15;100.00;98270.75;5065112;28;20147;-44
2023/11/06 02:37:51;;;;;;;10.88;1.73;;;;;;;6.14;100.00;98282.91;5068564;28;20418;-43
2023/11/06 02:40:18;;;;;;;9.38;1.38;;;;;;;6.15;100.00;98281.75;5068626;28;20102;-41
2023/11/06 02:42:45;;;;;;;16.02;2.10;;;;;;;6.14;100.00;98288.41;5067917;28;20119;-43
2023/11/06 02:45:13;;;;;;;11.18;1.40;;;;;;;6.13;100.00;98284.88;5068628;28;20036;-42
2023/11/06 02:47:40;;;;;;;9.65;1.80;;;;;;;6.14;100.00;98291.16;5068952;28;20086;-42
2023/11/06 02:50:08;;;;;;;8.75;1.13;;;;;;;6.13;100.00;98276.63;5068408;28;20472;-42
2023/11/06 02:52:35;;;;;;;11.07;1.10;;;;;;;6.12;100.00;98279.72;5068635;28;20066;-43
2023/11/06 02:55:02;;;;;;;9.85;1.48;;;;;;;6.13;100.00;98275.84;5065722;28;20063;-43
2023/11/06 02:57:29;;;;;;;15.40;1.83;;;;;;;6.14;100.00;98291.16;5057766;28;20039;-42
2023/11/06 02:59:56;;;;;;;6.88;2.25;;;;;;;6.13;100.00;98289.56;5067776;28;20075;-42
2023/11/06 03:02:22;;;;;;;7.68;1.45;;;;;;;6.13;100.00;98281.31;5026371;22;20060;-43
2023/11/06 03:04:49;;;;;;;8.85;2.42;;;;;;;6.12;100.00;98290.72;5066577;28;20044;-44
2023/11/06 03:07:16;;;;;;;9.18;1.45;;;;;;;6.11;100.00;98283.66;5065936;28;20385;-42
2023/11/06 03:09:45;;;;;;;12.00;1.33;;;;;;;6.12;100.00;98287.97;5064849;28;20049;-44
2023/11/06 03:12:12;;;;;;;4.07;1.08;;;;;;;6.10;100.00;98285.63;5066468;28;20040;-44
2023/11/06 03:14:40;;;;;;;8.25;1.20;;;;;;;6.10;100.00;98287.56;5063326;28;20036;-42
2023/11/06 03:17:07;;;;;;;10.93;1.65;;;;;;;6.07;100.00;98291.06;5065018;28;20052;-42
2023/11/06 03:19:35;;;;;;;8.65;1.40;;;;;;;6.06;100.00;98305.97;5063934;28;20036;-42
2023/11/06 03:22:02;;;;;;;5.43;1.15;;;;;;;6.05;100.00;98294.19;5066634;28;20131;-44
2023/11/06 03:24:28;;;;;;;10.77;1.40;;;;;;;6.06;100.00;98289.50;5048481;28;20711;-41
2023/11/06 03:26:55;;;;;;;12.63;1.50;;;;;;;6.05;100.00;98293.41;5066265;28;20501;-42
2023/11/06 03:29:22;;;;;;;14.13;4.40;;;;;;;6.04;100.00;98298.09;5065778;28;20033;-42
2023/11/06 03:31:49;;;;;;;7.82;1.38;;;;;;;6.04;100.00;98289.84;5066542;28;20123;-43
2023/11/06 03:34:16;;;;;;;8.05;1.58;;;;;;;6.05;100.00;98298.91;5067209;28;20033;-41
2023/11/06 03:36:45;;;;;;;9.23;1.52;;;;;;;6.05;100.00;98304.38;5069520;28;20047;-46
2023/11/06 03:39:13;;;;;;;8.15;3.53;;;;;;;6.05;100.00;98302.44;5069645;28;20039;-43
2023/11/06 03:41:40;;;;;;;5.65;1.42;;;;;;;6.06;100.00;98300.50;5070232;28;20075;-46
2023/11/06 03:44:07;;;;;;;4.75;1.38;;;;;;;6.06;100.00;98312.25;5051519;28;20135;-45
2023/11/06 03:46:35;;;;;;;5.63;1.33;;;;;;;6.06;100.00;98316.97;5070096;28;20037;-44
2023/11/06 03:49:06;;;;;;;14.20;1.67;;;;;;;6.08;100.00;98320.91;5067700;28;20549;-45
2023/11/06 03:51:33;;;;;;;3.40;1.33;;;;;;;6.09;100.00;98316.19;5067689;28;20039;-47
2023/11/06 03:54:00;;;;;;;3.92;0.85;;;;;;;6.10;100.00;98323.28;5068516;28;20498;-42
2023/11/06 03:56:27;;;;;;;12.82;1.30;;;;;;;6.10;100.00;98331.53;5069836;28;20394;-44
2023/11/06 03:58:54;;;;;;;6.50;1.30;;;;;;;6.09;100.00;98333.47;5069447;28;20767;-47
2023/11/06 04:01:20;;;;;;;5.20;1.42;;;;;;;6.09;100.00;98338.16;5068249;28;20074;-45
2023/11/06 04:03:47;;;;;;;10.30;1.00;;;;;;;6.08;100.00;98328.38;5069515;28;20061;-45
2023/11/06 04:06:14;;;;;;;9.07;2.25;;;;;;;6.07;100.00;98329.50;5070019;28;20037;-47
2023/11/06 04:08:41;;;;;;;4.15;1.45;;;;;;;6.05;100.00;98326.34;5062438;28;20045;-46
2023/11/06 04:11:07;;;;;;;6.95;1.27;;;;;;;6.05;100.00;98331.84;5068771;28;20033;-44
2023/11/06 04:13:35;;;;;;;9.57;3.22;;;;;;;6.05;100.00;98348.34;5069361;28;20448;-42
2023/11/06 04:16:03;;;;;;;6.30;1.10;;;;;;;6.04;100.00;98344.78;5051496;28;20078;-43
2023/11/06 04:18:30;;;;;;;8.70;1.48;;;;;;;6.03;100.00;98345.19;5069827;28;20422;-41
2023/11/06 04:20:56;;;;;;;10.05;1.58;;;;;;;6.02;100.00;98346.31;5069598;28;20044;-41
2023/11/06 04:23:24;;;;;;;5.38;1.27;;;;;;;6.02;100.00;98349.06;5069666;28;20028;-41
2023/11/06 04:25:50;;;;;;;8.30;1.08;;;;;;;6.00;100.00;98348.66;5068698;28;20422;-44
2023/11/06 04:28:17;;;;;;;9.43;1.15;;;;;;;5.98;100.00;98354.50;5069173;28;20056;-41
2023/11/06 04:30:44;;;;;;;8.05;1.33;;;;;;;5.99;100.00;98360.81;5068756;28;20045;-45
2023/11/06 04:33:11;;;;;;;7.28;3.38;;;;;;;5.99;100.00;98360.81;5051760;28;20075;-42
2023/11/06 04:35:38;;;;;;;9.38;1.15;;;;;;;5.99;100.00;98360.81;5065890;28;20036;-42
2023/11/06 04:38:05;;;;;;;5.35;1.00;;;;;;;5.98;100.00;98381.97;5058638;28;20044;-41
2023/11/06 04:40:32;;;;;;;7.57;1.40;;;;;;;6.00;100.00;98374.19;5069537;28;20094;-41
2023/11/06 04:42:59;;;;;;;6.93;0.90;;;;;;;6.00;100.00;98379.66;5059512;28;20040;-42
2023/11/06 04:45:26;;;;;;;8.15;1.50;;;;;;;6.00;100.00;98385.16;5052923;28;20045;-41
2023/11/06 04:47:52;;;;;;;6.30;1.05;;;;;;;6.00;100.00;98379.66;5069386;28;20036;-41
2023/11/06 04:50:19;;;;;;;6.20;0.93;;;;;;;6.01;100.00;98383.22;5069088;28;20052;-42
2023/11/06 04:52:46;;;;;;;9.60;1.25;;;;;;;6.00;100.00;98387.13;5069194;28;20428;-41
2023/11/06 04:55:13;;;;;;;9.32;1.25;;;;;;;6.01;100.00;98386.72;5037507;28;20036;-41
2023/11/06 04:57:40;;;;;;;8.25;1.30;;;;;;;6.00;100.00;98395.34;5061557;28;20121;-42
2023/11/06 05:00:09;;;;;;;5.93;1.17;;;;;;;6.00;100.00;98395.34;5064305;28;20458;-44
2023/11/06 05:02:36;;;;;;;9.20;1.23;;;;;;;6.00;100.00;98406.34;5069651;28;20056;-43
2023/11/06 05:05:04;;;;;;;11.43;1.55;;;;;;;5.99;100.00;98404.75;5058855;28;20067;-43
2023/11/06 05:07:31;;;;;;;10.35;1.52;;;;;;;5.97;100.00;98402.38;5063540;28;20033;-42
2023/11/06 05:09:58;;;;;;;7.88;1.50;;;;;;;5.98;100.00;98412.19;5066587;28;20097;-42
2023/11/06 05:12:25;;;;;;;4.78;0.98;;;;;;;5.98;100.00;98414.16;5068560;28;20040;-44
2023/11/06 05:14:51;;;;;;;5.38;1.25;;;;;;;5.97;100.00;98407.06;5067239;28;20040;-45
2023/11/06 05:17:19;;;;;;;16.70;2.15;;;;;;;5.97;100.00;98418.06;5063694;28;20809;-42
2023/11/06 05:19:46;;;;;;;5.68;1.67;;;;;;;5.97;100.00;98418.06;5063182;28;20045;-41
2023/11/06 05:22:13;;;;;;;12.68;1.33;;;;;;;5.98;100.00;98422.41;5066290;28;20036;-41
2023/11/06 05:24:43;;;;;;;5.13;1.58;;;;;;;6.00;100.00;98411.84;5066962;28;20383;-45
2023/11/06 05:27:10;;;;;;;12.35;2.10;;;;;;;6.01;100.00;98418.91;5069220;28;20036;-45
2023/11/06 05:29:37;;;;;;;14.35;2.15;;;;;;;6.00;100.00;98406.34;5068946;28;20634;-46
2023/11/06 05:32:05;;;;;;;12.25;2.03;;;;;;;5.99;100.00;98421.22;5068183;28;20075;-42
2023/11/06 05:34:32;;;;;;;8.52;1.40;;;;;;;5.99;100.00;98415.72;5047432;28;20035;-44
2023/11/06 05:36:59;;;;;;;6.00;1.63;;;;;;;5.99;100.00;98429.47;5068622;28;20072;-44
2023/11/06 05:39:26;;;;;;;6.97;1.48;;;;;;;6.00;100.00;98431.06;5068744;28;20078;-44
2023/11/06 05:41:52;;;;;;;4.65;1.52;;;;;;;5.98;100.00;98428.66;5067030;28;20087;-43
2023/11/06 05:44:19;;;;;;;7.13;1.25;;;;;;;5.98;100.00;98441.63;5056865;28;20135;-45
2023/11/06 05:46:46;;;;;;;6.63;1.50;;;;;;;5.96;100.00;98427.44;5066466;28;20051;-43
2023/11/06 05:49:12;;;;;;;11.35;2.17;;;;;;;5.96;100.00;98433.75;5048518;28;20095;-42
2023/11/06 05:51:40;;;;;;;5.20;1.30;;;;;;;5.96;100.00;98432.94;5046137;28;20793;-41
2023/11/06 05:54:06;;;;;;;11.68;2.30;;;;;;;5.96;100.00;98430.19;5067908;28;20051;-42
2023/11/06 05:56:33;;;;;;;8.38;1.60;;;;;;;5.95;100.00;98440.41;5067612;28;20125;-43
2023/11/06 05:59:02;;;;;;;13.27;3.45;;;;;;;5.95;100.00;98450.59;5068403;28;20062;-42
2023/11/06 06:01:30;;;;;;;10.75;1.60;;;;;;;5.94;100.00;98444.31;5068286;28;20053;-42
2023/11/06 06:03:57;;;;;;;4.90;1.73;;;;;;;5.95;100.00;98453.34;5066813;28;20542;-42
2023/11/06 06:06:25;;;;;;;15.50;2.78;;;;;;;5.94;100.00;98447.06;5050360;28;20504;-42
2023/11/06 06:08:52;;;;;;;12.80;1.55;;;;;;;5.95;100.00;98453.34;5057810;28;20051;-44
2023/11/06 06:11:19;;;;;;;15.27;1.70;;;;;;;5.95;100.00;98454.16;5064266;28;20757;-41
2023/11/06 06:13:46;;;;;;;11.57;2.88;;;;;;;5.95;100.00;98464.34;5068004;28;20043;-43
2023/11/06 06:16:13;;;;;;;6.97;1.42;;;;;;;5.93;100.00;98467.44;5064981;28;20063;-44
2023/11/06 06:18:40;;;;;;;5.40;1.30;;;;;;;5.92;100.00;98479.59;5058008;28;20405;-41
2023/11/06 06:21:07;;;;;;;18.73;2.33;;;;;;;5.92;100.00;98476.06;5066249;28;20054;-41
2023/11/06 06:23:34;;;;;;;15.77;1.83;;;;;;;5.92;100.00;98481.53;5067414;28;20091;-42
2023/11/06 06:26:01;;;;;;;11.57;3.15;;;;;;;5.91;100.00;98477.19;5048959;28;20043;-41
2023/11/06 06:28:30;;;;;;;9.13;2.42;;;;;;;5.90;100.00;98483.88;5067472;28;20071;-43
2023/11/06 06:30:57;;;;;;;6.20;1.45;;;;;;;5.88;100.00;98481.47;5066866;28;20490;-45
2023/11/06 06:33:23;;;;;;;17.92;2.05;;;;;;;5.88;100.00;98484.22;5066535;28;20043;-41
2023/11/06 06:35:50;;;;;;;11.15;1.85;;;;;;;5.87;100.00;98484.59;5063495;28;20135;-42
2023/11/06 06:38:18;;;;;;;9.82;1.98;;;;;;;5.87;100.00;98481.88;5057921;28;20129;-42
2023/11/06 06:40:49;;;;;;;7.60;1.75;;;;;;;5.87;100.00;98490.09;5067067;28;20568;-42
2023/11/06 06:43:16;;;;;;;5.85;3.08;;;;;;;5.85;100.00;98490.44;5067686;28;20040;-42
2023/11/06 06:45:43;;;;;;;8.57;1.75;;;;;;;5.86;100.00;98488.50;5067309;28;20048;-44
2023/11/06 06:48:10;;;;;;;12.10;2.97;;;;;;;5.86;100.00;98496.75;5067286;28;20044;-45
2023/11/06 06:50:36;;;;;;;15.25;2.95;;;;;;;5.86;100.00;98494.00;5067805;28;20048;-41
2023/11/06 06:53:03;;;;;;;22.33;3.45;;;;;;;5.85;100.00;98497.91;5066672;28;20043;-45
2023/11/06 06:55:30;;;;;;;11.07;2.22;;;;;;;5.84;100.00;98501.78;5067617;28;20090;-41
2023/11/06 06:57:59;;;;;;;16.98;2.65;;;;;;;5.84;100.00;98501.78;5067875;28;20437;-41
2023/11/06 07:00:27;;;;;;;13.05;3.42;;;;;;;5.82;100.00;98504.13;5067667;28;20115;-40
2023/11/06 07:02:54;;;;;;;8.88;1.67;;;;;;;5.82;100.00;98510.41;5066884;28;20063;-42
2023/11/06 07:05:21;;;;;;;12.05;2.30;;;;;;;5.84;100.00;98508.06;5067460;28;20037;-42
2023/11/06 07:07:48;;;;;;;23.88;3.05;;;;;;;5.84;100.00;98512.78;5053494;28;20045;-41
2023/11/06 07:10:15;;;;;;;13.68;2.35;;;;;;;5.85;100.00;98517.13;5070738;28;20045;-42
2023/11/06 07:12:42;;;;;;;18.50;2.85;;;;;;;5.84;100.00;98523.75;5070910;28;20048;-44
2023/11/06 07:15:10;;;;;;;16.60;2.42;;;;;;;5.84;100.00;98534.72;5059856;28;20136;-41
2023/11/06 07:17:37;;;;;;;4.85;1.38;;;;;;;5.85;100.00;98544.59;5071332;28;20123;-41
2023/11/06 07:20:05;;;;;;;14.13;2.25;;;;;;;5.86;100.00;98546.97;5070097;28;20135;-42
2023/11/06 07:22:32;;;;;;;11.63;1.52;;;;;;;5.88;100.00;98552.06;5069243;28;20051;-42
2023/11/06 07:25:00;;;;;;;11.57;3.65;;;;;;;5.90;100.00;98560.75;5070951;28;20135;-42
2023/11/06 07:27:27;;;;;;;13.38;2.55;;;;;;;5.92;100.00;98559.22;5070669;28;20028;-43
2023/11/06 07:29:54;;;;;;;14.65;2.67;;;;;;;5.97;100.00;98561.66;5070143;28;20037;-42
2023/11/06 07:32:20;;;;;;;14.80;2.03;;;;;;;5.99;100.00;98566.78;5069904;28;20044;-48
2023/11/06 07:34:49;;;;;;;16.70;2.90;;;;;;;6.04;100.00;98563.72;5065887;28;20076;-43
2023/11/06 07:37:16;;;;;;;8.57;2.20;;;;;;;6.07;100.00;98565.75;5069758;28;20051;-44
2023/11/06 07:39:43;;;;;;;14.80;2.00;;;;;;;6.10;100.00;98565.81;5070391;28;20032;-48
2023/11/06 07:42:13;;;;;;;16.48;3.70;;;;;;;6.16;100.00;98576.47;5067994;28;20401;-45
2023/11/06 07:44:41;;;;;;;13.15;3.15;;;;;;;6.20;100.00;98580.84;5053430;28;20037;-45
2023/11/06 07:47:08;;;;;;;15.45;2.08;;;;;;;6.25;100.00;98594.28;5072469;28;20452;-47
2023/11/06 07:49:35;;;;;;;16.88;2.70;;;;;;;6.31;100.00;98592.81;5071671;28;20037;-45
2023/11/06 07:52:09;;;;;;;14.60;2.83;;;;;;;6.34;100.00;98581.09;5069532;28;20094;-44
2023/11/06 07:54:43;;;;;;;14.25;2.25;;;;;;;6.37;100.00;98591.34;5077730;28;20041;-44
2023/11/06 07:57:11;;;;;;;12.15;1.85;;;;;;;6.40;100.00;98596.09;5069916;28;20036;-46
2023/11/06 07:59:42;;;;;;;16.23;4.82;;;;;;;6.42;100.00;98603.97;5070872;28;20078;-49
2023/11/06 08:02:10;;;;;;;15.57;2.80;;;;;;;6.45;100.00;98606.78;5058282;28;20048;-42
2023/11/06 08:04:40;;;;;;;6.93;1.80;;;;;;;6.49;100.00;98604.88;5070006;28;20127;-42
2023/11/06 08:07:07;;;;;;;18.30;2.85;;;;;;;6.53;100.00;98615.91;5070207;28;20049;-43
2023/11/06 08:09:34;;;;;;;19.90;3.60;;;;;;;6.53;100.00;98615.91;5069948;28;20040;-43
2023/11/06 08:12:00;;;;;;;14.68;2.42;;;;;;;6.54;100.00;98629.28;5070112;28;20039;-42
2023/11/06 08:14:27;;;;;;;14.88;2.78;;;;;;;6.55;100.00;98628.13;5069327;28;20055;-42
2023/11/06 08:16:56;;;;;;;16.27;3.53;;;;;;;6.58;100.00;98624.66;5059508;28;20040;-40
2023/11/06 08:19:23;;;;;;;17.17;3.45;;;;;;;6.61;100.00;98640.41;5073252;28;20478;-42
2023/11/06 08:21:49;;;;;;;25.70;5.20;;;;;;;6.62;100.00;98630.97;5068247;28;20063;-41
2023/11/06 08:24:16;;;;;;;9.65;2.13;;;;;;;6.66;100.00;98634.59;5075481;28;20068;-40
2023/11/06 08:26:45;;;;;;;11.25;3.78;;;;;;;6.68;100.00;98629.50;5076758;28;20083;-40
2023/11/06 08:29:12;;;;;;;10.70;2.67;;;;;;;6.73;100.00;98637.44;5072657;28;20044;-40
2023/11/06 08:31:40;;;;;;;10.10;2.55;;;;;;;6.75;100.00;98642.59;5068341;28;20058;-43
2023/11/06 08:34:07;;;;;;;13.93;3.85;;;;;;;6.77;100.00;98643.00;5069332;28;20051;-41
2023/11/06 08:36:33;;;;;;;13.55;1.85;;;;;;;6.79;100.00;98639.88;5069324;28;20041;-40
2023/11/06 08:39:00;;;;;;;14.65;3.13;;;;;;;6.79;100.00;98645.38;5068310;28;20044;-44
2023/11/06 08:41:27;;;;;;;13.35;2.72;;;;;;;6.80;100.00;98638.72;5069755;28;20059;-41
2023/11/06 08:43:54;;;;;;;9.77;1.60;;;;;;;6.82;100.00;98645.44;5069758;28;20036;-41
2023/11/06 08:46:20;;;;;;;18.17;2.63;;;;;;;6.84;100.00;98645.84;5067298;28;20044;-42
2023/11/06 08:48:47;;;;;;;12.63;1.98;;;;;;;6.87;100.00;98642.34;5051754;28;20075;-41
2023/11/06 08:51:15;;;;;;;12.02;2.60;;;;;;;6.86;100.00;98643.50;5069071;28;20052;-43
2023/11/06 08:53:42;;;;;;;7.70;2.17;;;;;;;6.84;100.00;98637.59;5069827;28;20036;-42
2023/11/06 08:56:09;;;;;;;11.90;3.38;;;;;;;6.85;100.00;98647.44;5069681;28;20049;-40
2023/11/06 08:58:37;;;;;;;8.30;1.77;;;;;;;6.86;100.00;98662.75;5068756;28;20128;-44
2023/11/06 09:01:06;;;;;;;12.07;1.73;;;;;;;6.89;100.00;98663.97;5067690;28;20063;-44
2023/11/06 09:03:32;;;;;;;10.43;1.98;;;;;;;6.94;100.00;98669.16;5055739;28;20064;-42
2023/11/06 09:05:59;;;;;;;11.02;3.92;;;;;;;7.00;100.00;98664.91;5063443;28;20051;-42
2023/11/06 09:08:26;;;;;;;10.45;2.30;;;;;;;7.05;100.00;98673.66;5069401;28;20064;-43
2023/11/06 09:10:53;;;;;;;11.02;2.78;;;;;;;7.11;100.00;98679.63;5068781;28;20688;-44
2023/11/06 09:13:20;;;;;;;12.38;2.10;;;;;;;7.14;100.00;98685.19;5068713;28;20044;-42
2023/11/06 09:15:47;;;;;;;10.18;1.52;;;;;;;7.22;100.00;98686.06;5068920;28;20037;-41
2023/11/06 09:18:19;;;;;;;10.82;1.50;;;;;;;7.26;100.00;98692.41;5067284;28;20123;-42
2023/11/06 09:20:49;;;;;;;8.98;1.35;;;;;;;7.33;100.00;98692.50;5068847;28;20048;-44
2023/11/06 09:23:16;;;;;;;8.75;1.98;;;;;;;7.43;100.00;98702.88;5067826;28;20047;-42
2023/11/06 09:25:43;;;;;;;6.85;1.90;;;;;;;7.57;100.00;98697.50;5068783;28;20048;-49
2023/11/06 09:28:10;;;;;;;9.32;1.50;;;;;;;7.71;100.00;98705.97;5065875;28;20144;-41
2023/11/06 09:30:37;;;;;;;6.55;1.05;;;;;;;7.86;100.00;98713.22;5063484;28;20047;-42
2023/11/06 09:33:03;;;;;;;6.53;1.80;;;;;;;7.98;100.00;98710.22;5068289;28;20147;-43
2023/11/06 09:35:30;;;;;;;12.75;1.52;;;;;;;8.14;100.00;98714.69;5067894;28;20045;-43
2023/11/06 09:37:57;;;;;;;6.57;1.20;;;;;;;8.27;100.00;98707.75;5068447;28;20044;-46
2023/11/06 09:40:24;;;;;;;11.98;1.45;;;;;;;8.32;100.00;98721.19;5068226;28;20044;-46
2023/11/06 09:42:51;;;;;;;5.35;1.00;;;;;;;8.38;100.00;98730.72;5068471;28;20490;-45
2023/11/06 09:45:18;;;;;;;3.60;1.33;;;;;;;8.42;100.00;98726.03;5067840;28;20449;-43
2023/11/06 09:47:51;;;;;;;4.75;1.05;;;;;;;8.43;100.00;98722.91;5068589;28;20040;-44
2023/11/06 09:50:23;;;;;;;4.68;1.00;;;;;;;8.43;100.00;98727.63;5068036;28;20490;-42
2023/11/06 09:52:55;;;;;;;1.73;0.80;;;;;;;8.40;100.00;98717.34;5067836;28;20048;-42
2023/11/06 09:55:23;;;;;;;;;;;;;;;8.36;100.00;98733.88;5068819;28;20040;-42
2023/11/06 09:57:51;;;;;;;11.10;1.80;;;;;;;8.34;100.00;98729.91;5067440;28;20028;-41
2023/11/06 10:00:20;;;;;;;7.85;1.55;;;;;;;8.31;100.00;98738.94;5067669;28;20039;-43
2023/11/06 10:02:49;;;;;;;4.63;0.95;;;;;;;8.28;100.00;98737.72;5068206;28;20048;-43
2023/11/06 10:05:20;;;;;;;3.00;0.90;;;;;;;8.22;100.00;98744.72;5054800;28;20047;-41
2023/11/06 10:07:52;;;;;;;7.13;1.23;;;;;;;8.17;100.00;98741.50;5065142;28;20032;-43
2023/11/06 10:10:25;;;;;;;4.47;0.68;;;;;;;8.12;100.00;98750.13;5067352;28;20049;-43
2023/11/06 10:13:10;;;;;;;6.82;1.65;;;;;;;8.07;100.00;98753.22;5050669;28;20032;-43
2023/11/06 10:15:37;;;;;;;9.50;1.25;;;;;;;8.04;100.00;98753.97;5068965;28;20597;-42
2023/11/06 10:18:19;;;;;;;10.35;1.40;;;;;;;7.98;100.00;98762.56;5045213;28;20046;-45
2023/11/06 10:20:50;;;;;;;4.60;1.27;;;;;;;7.94;100.00;98761.72;5067800;28;20047;-43
2023/11/06 10:23:27;;;;;;;4.53;1.20;;;;;;;7.90;100.00;98760.91;5068504;28;20693;-42
2023/11/06 10:26:08;;;;;;;8.43;1.92;;;;;;;7.87;100.00;98772.66;5055004;28;20036;-46
2023/11/06 10:28:37;;;;;;;7.82;0.95;;;;;;;7.83;100.00;98777.34;5067750;28;20052;-42
2023/11/06 10:31:05;;;;;;;7.50;1.38;;;;;;;7.81;100.00;98779.66;5067393;28;20037;-43
2023/11/06 10:33:33;;;;;;;10.23;2.70;;;;;;;7.80;100.00;98786.34;5068796;28;20035;-43
2023/11/06 10:36:00;;;;;;;8.05;1.40;;;;;;;7.79;100.00;98786.72;5067890;28;20110;-42
2023/11/06 10:38:35;;;;;;;8.13;1.98;;;;;;;7.79;100.00;98790.28;5068010;28;20040;-44
2023/11/06 10:41:26;;;;;;;9.15;2.25;;;;;;;7.81;100.00;98801.69;5067858;28;20795;-43
2023/11/06 10:44:00;;;;;;;10.98;1.52;;;;;;;7.83;100.00;98796.63;5063843;28;20045;-42
2023/11/06 10:46:39;;;;;;;6.72;1.67;;;;;;;7.84;100.00;98805.66;5062251;28;20477;-42
2023/11/06 10:49:23;;;;;;;8.60;2.00;;;;;;;7.86;100.00;98800.59;5054549;28;20043;-43
2023/11/06 10:51:52;;;;;;;8.00;1.67;;;;;;;7.88;100.00;98806.53;5059650;28;20043;-45
2023/11/06 10:54:19;;;;;;;6.28;1.40;;;;;;;7.89;100.00;98808.88;5062966;28;20075;-42
2023/11/06 10:56:56;;;;;;;8.43;1.95;;;;;;;7.91;100.00;98816.78;5065485;28;20044;-43
2023/11/06 10:59:26;;;;;;;4.05;1.23;;;;;;;7.92;100.00;98808.16;5066864;28;20067;-43
2023/11/06 11:01:56;;;;;;;7.60;2.03;;;;;;;7.93;100.00;98820.75;5066616;28;20070;-44
2023/11/06 11:04:28;;;;;;;14.93;2.85;;;;;;;7.95;100.00;98823.13;5066564;28;20106;-47
2023/11/06 11:06:58;;;;;;;10.10;2.47;;;;;;;7.96;100.00;98817.25;5067280;28;20044;-43
2023/11/06 11:09:25;;;;;;;10.63;2.13;;;;;;;8.01;100.00;98820.84;5067367;28;20041;-42
2023/11/06 11:11:53;;;;;;;4.88;1.58;;;;;;;8.06;100.00;98834.28;5060648;28;20053;-44
2023/11/06 11:14:20;;;;;;;12.13;1.85;;;;;;;8.13;100.00;98835.16;5061103;28;20071;-45
2023/11/06 11:16:52;;;;;;;7.63;1.38;;;;;;;8.22;100.00;98835.69;5059559;28;20045;-42
2023/11/06 11:19:33;;;;;;;7.72;1.20;;;;;;;8.31;100.00;98840.94;5062066;28;20040;-43
2023/11/06 11:22:04;;;;;;;3.72;1.17;;;;;;;8.42;100.00;98847.34;5056507;28;20037;-42
2023/11/06 11:24:59;;;;;;;2.28;1.02;;;;;;;8.57;100.00;98844.41;5067182;28;20072;-47
2023/11/06 11:27:27;;;;;;;9.23;1.42;;;;;;;8.75;100.00;98850.09;5064627;28;20060;-43
2023/11/06 11:29:58;;;;;;;6.72;1.92;;;;;;;8.96;100.00;98853.06;5066863;28;20032;-43
2023/11/06 11:32:33;;;;;;;8.35;1.55;;;;;;;9.16;100.00;98853.59;5053783;28;20137;-42